.
WxDataArchive / Data Records for 2014-09-05
2014-09-04 September 2014 2014-09-06

Data Records for Friday, 05 September 2014

Time	Temp	Chill	HIndex	Humid	Dewpt	 Wind 	HiWind	WindDir	Rain 	Barom
-----	----	-----	------	-----	-----	------	------	-------	-----	-----
00:00	74.9	74.9	74.9	80	68.3	0	0	---	0.00	30.012 
00:05	74.7	74.7	74.7	81	68.5	0	0	---	0.00	30.012 
00:10	74.6	74.6	74.6	81	68.4	0	0	---	0.00	30.012 
00:15	74.4	74.4	74.4	81	68.2	0	0	---	0.00	30.013 
00:20	74.4	74.4	74.4	82	68.5	0	0	---	0.00	30.013 
00:25	74.2	74.2	74.2	82	68.3	0	0	---	0.00	30.013 
00:30	73.9	73.9	73.9	82	68.0	0	0	---	0.00	30.007 
00:35	73.7	73.7	73.7	83	68.2	0	0	---	0.00	30.007 
00:40	73.7	73.7	73.7	83	68.2	0	0	---	0.00	30.007 
00:45	73.5	73.5	73.5	84	68.4	0	0	---	0.00	30.006 
00:50	73.5	73.5	73.5	84	68.4	0	0	---	0.00	30.006 
00:55	73.5	73.5	73.5	84	68.4	0	0	---	0.00	30.006 
01:00	73.7	73.7	73.7	84	68.6	0	0	---	0.00	30.002 
01:05	73.7	73.7	73.7	84	68.6	0	0	---	0.00	30.002 
01:10	73.9	73.9	73.9	83	68.4	0	1	45	0.00	30.002 
01:15	73.9	73.9	73.9	83	68.4	0	0	---	0.00	29.996 
01:20	73.9	73.9	73.9	83	68.4	0	0	---	0.00	29.996 
01:25	73.9	73.9	73.9	82	68.0	0	0	---	0.00	29.996 
01:30	73.9	73.9	73.9	82	68.0	0	0	---	0.00	29.992 
01:35	73.9	73.9	73.9	82	68.0	0	0	---	0.00	29.992 
01:40	73.7	73.7	73.7	82	67.9	0	0	---	0.00	29.992 
01:45	73.7	73.7	73.7	82	67.9	0	0	---	0.00	29.987 
01:50	73.5	73.5	73.5	83	68.0	0	0	---	0.00	29.987 
01:55	73.5	73.5	73.5	83	68.0	0	0	---	0.00	29.987 
02:00	73.3	73.3	73.3	83	67.8	0	1	45	0.00	29.990 
02:05	73.3	73.3	73.3	83	67.8	0	0	---	0.00	29.990 
02:10	73.2	73.2	73.2	84	68.1	0	0	---	0.00	29.990 
02:15	73.2	73.2	73.2	84	68.1	0	1	45	0.00	29.986 
02:20	73.0	73.0	73.0	84	67.9	0	0	---	0.00	29.986 
02:25	73.0	73.0	73.0	84	67.9	0	0	---	0.00	29.986 
02:30	72.8	72.8	72.8	84	67.7	0	0	---	0.00	29.980 
02:35	72.7	72.7	72.7	85	67.9	0	0	---	0.00	29.980 
02:40	72.7	72.7	72.7	85	67.9	0	1	45	0.00	29.980 
02:45	72.5	72.5	72.5	85	67.7	0	1	45	0.00	29.974 
02:50	72.5	72.5	72.5	85	67.7	0	1	45	0.00	29.974 
02:55	72.5	72.5	72.5	85	67.7	0	0	---	0.00	29.974 
03:00	72.5	72.5	72.5	85	67.7	0	1	45	0.00	29.973 
03:05	72.3	72.3	72.3	86	67.9	0	0	---	0.00	29.973 
03:10	72.3	72.3	72.3	86	67.9	0	0	---	0.00	29.973 
03:15	72.3	72.3	72.3	86	67.9	0	1	45	0.00	29.973 
03:20	72.3	72.3	72.3	86	67.9	0	1	45	0.00	29.973 
03:25	72.3	72.3	72.3	86	67.9	0	0	---	0.00	29.973 
03:30	72.3	72.3	72.3	86	67.9	0	0	---	0.00	29.972 
03:35	72.1	72.1	72.1	86	67.7	0	1	45	0.00	29.972 
03:40	72.1	72.1	72.1	86	67.7	0	1	45	0.00	29.972 
03:45	72.1	72.1	72.1	86	67.7	0	1	45	0.00	29.969 
03:50	72.1	72.1	72.1	86	67.7	0	1	45	0.00	29.969 
03:55	72.3	72.3	72.3	86	67.9	0	1	45	0.00	29.969 
04:00	72.3	72.3	72.3	86	67.9	0	2	292	0.00	29.967 
04:05	72.3	72.3	72.3	86	67.9	0	1	292	0.00	29.967 
04:10	72.3	72.3	72.3	86	67.9	0	1	292	0.00	29.967 
04:15	72.3	72.3	72.3	86	67.9	0	1	292	0.00	29.967 
04:20	72.5	72.5	72.5	86	68.1	0	1	292	0.00	29.967 
04:25	72.5	72.5	72.5	86	68.1	0	2	292	0.00	29.967 
04:30	72.7	72.7	72.7	86	68.3	0	1	292	0.00	29.970 
04:35	72.7	72.7	72.7	85	67.9	0	1	292	0.00	29.970 
04:40	72.8	72.8	72.8	85	68.0	0	1	292	0.00	29.970 
04:45	72.8	72.8	72.8	85	68.0	0	1	292	0.00	29.972 
04:50	72.8	72.8	72.8	85	68.0	0	1	292	0.00	29.972 
04:55	72.8	72.8	72.8	85	68.0	0	1	292	0.00	29.972 
05:00	72.8	72.8	72.8	85	68.0	0	1	292	0.00	29.971 
05:05	72.8	72.8	72.8	85	68.0	0	1	292	0.00	29.971 
05:10	72.7	72.7	72.7	85	67.9	0	1	292	0.00	29.971 
05:15	72.7	72.7	72.7	85	67.9	0	1	292	0.00	29.972 
05:20	72.7	72.7	72.7	85	67.9	0	1	292	0.00	29.972 
05:25	72.7	72.7	72.7	85	67.9	0	1	292	0.00	29.972 
05:30	72.7	72.7	72.7	85	67.9	0	1	292	0.00	29.975 
05:35	72.5	72.5	72.5	85	67.7	0	0	---	0.00	29.975 
05:40	72.5	72.5	72.5	86	68.1	0	1	292	0.00	29.975 
05:45	72.5	72.5	72.5	86	68.1	0	0	---	0.00	29.985 
05:50	72.5	72.5	72.5	86	68.1	0	1	292	0.00	29.985 
05:55	72.5	72.5	72.5	86	68.1	0	0	---	0.00	29.985 
06:00	72.5	72.5	72.5	86	68.1	0	1	292	0.00	29.988 
06:05	72.5	72.5	72.5	86	68.1	0	1	292	0.00	29.988 
06:10	72.7	72.7	72.7	86	68.3	0	1	292	0.00	29.988 
06:15	72.7	72.7	72.7	86	68.3	0	1	292	0.00	29.993 
06:20	72.8	72.8	72.8	85	68.0	0	1	292	0.00	29.993 
06:25	72.8	72.8	72.8	85	68.0	0	1	292	0.00	29.993 
06:30	72.8	72.8	72.8	85	68.0	0	0	---	0.00	30.001 
06:35	72.8	72.8	72.8	85	68.0	0	1	292	0.00	30.001 
06:40	72.8	72.8	72.8	85	68.0	0	1	292	0.00	30.001 
06:45	72.8	72.8	72.8	85	68.0	0	0	---	0.00	30.005 
06:50	72.8	72.8	72.8	85	68.0	0	0	---	0.00	30.005 
06:55	73.0	73.0	73.0	85	68.2	0	1	292	0.00	30.005 
07:00	73.0	73.0	73.0	85	68.2	0	0	---	0.00	30.007 
07:05	73.0	73.0	73.0	85	68.2	0	1	292	0.00	30.007 
07:10	73.0	73.0	73.0	85	68.2	0	0	---	0.00	30.007 
07:15	72.8	72.8	72.8	85	68.0	0	0	---	0.00	30.007 
07:20	72.8	72.8	72.8	85	68.0	0	1	292	0.00	30.007 
07:25	72.7	72.7	72.7	85	67.9	0	0	---	0.00	30.007 
07:30	72.7	72.7	72.7	86	68.3	0	0	---	0.00	30.011 
07:35	72.5	72.5	72.5	86	68.1	0	0	---	0.00	30.011 
07:40	72.5	72.5	72.5	86	68.1	0	0	---	0.00	30.011 
07:45	72.5	72.5	72.5	86	68.1	0	0	---	0.00	30.012 
07:50	72.5	72.5	72.5	87	68.4	0	0	---	0.00	30.012 
07:55	72.5	72.5	72.5	87	68.4	0	0	---	0.00	30.012 
08:00	72.7	72.7	72.7	87	68.6	0	0	---	0.00	30.008 
08:05	72.8	72.8	72.8	87	68.7	0	0	---	0.00	30.008 
08:10	72.8	72.8	72.8	86	68.4	0	0	---	0.00	30.008 
08:15	73.0	73.0	73.0	86	68.6	0	1	292	0.00	30.010 
08:20	73.0	73.0	73.0	86	68.6	0	0	---	0.00	30.010 
08:25	73.2	73.2	73.2	86	68.7	0	0	---	0.00	30.010 
08:30	73.3	73.3	73.3	86	68.8	0	1	292	0.00	30.009 
08:35	73.7	73.7	73.7	85	68.9	0	1	292	0.00	30.009 
08:40	74.2	74.2	74.2	85	69.4	0	1	292	0.00	30.009 
08:45	74.6	74.6	74.6	84	69.4	0	0	---	0.00	30.009 
08:50	74.9	74.9	74.9	83	69.4	0	1	292	0.00	30.009 
08:55	75.3	75.3	75.6	83	69.8	0	1	292	0.00	30.009 
09:00	75.4	75.4	75.9	82	69.5	0	1	292	0.00	30.006 
09:05	75.8	75.8	76.6	81	69.5	0	1	292	0.00	30.006 
09:10	76.1	76.1	77.1	81	69.8	0	2	315	0.00	30.006 
09:15	76.5	76.5	77.7	81	70.2	0	2	315	0.00	29.999 
09:20	76.7	76.7	78.1	80	70.0	0	3	315	0.00	29.999 
09:25	77.0	77.0	78.6	80	70.3	0	2	315	0.00	29.999 
09:30	77.4	77.4	79.3	79	70.4	0	3	270	0.00	29.990 
09:35	77.7	77.7	79.8	79	70.7	0	1	292	0.00	29.990 
09:40	78.1	78.1	80.4	78	70.7	0	3	292	0.00	29.990 
09:45	78.5	78.5	81.1	78	71.1	0	2	292	0.00	29.990 
09:50	78.8	78.8	81.6	77	71.0	1	3	292	0.00	29.990 
09:55	79.0	79.0	82.0	77	71.2	1	2	248	0.00	29.990 
10:00	79.4	79.4	82.6	76	71.2	1	3	270	0.00	29.988 
10:05	79.8	79.8	83.2	75	71.1	1	3	270	0.00	29.988 
10:10	80.1	80.1	83.8	75	71.4	1	3	270	0.00	29.988 
10:15	80.5	80.5	84.4	74	71.4	1	3	270	0.00	29.986 
10:20	80.7	80.7	84.7	74	71.6	1	4	270	0.00	29.986 
10:25	81.1	81.1	85.3	73	71.6	1	4	270	0.00	29.986 
10:30	81.6	81.6	86.3	73	72.1	1	4	270	0.00	29.983 
10:35	82.0	82.0	87.1	73	72.5	0	3	270	0.00	29.983 
10:40	82.6	82.6	87.8	71	72.2	1	3	270	0.00	29.983 
10:45	83.2	83.2	88.8	70	72.4	0	3	270	0.00	29.974 
10:50	83.4	83.4	89.2	70	72.6	1	3	270	0.00	29.974 
10:55	83.6	83.6	89.3	69	72.3	1	5	270	0.00	29.974 
11:00	84.0	84.0	90.2	69	72.7	1	3	270	0.00	29.970 
11:05	84.3	84.3	90.1	67	72.1	1	3	292	0.00	29.970 
11:10	84.5	84.5	90.9	68	72.7	1	3	292	0.00	29.970 
11:15	84.7	84.7	91.0	67	72.5	1	4	292	0.00	29.968 
11:20	84.9	84.9	91.4	67	72.7	1	3	292	0.00	29.968 
11:25	85.3	85.3	91.9	66	72.6	1	3	0	0.00	29.968 
11:30	85.9	85.9	92.8	65	72.7	1	2	22	0.00	29.967 
11:35	86.1	86.1	93.2	65	72.9	1	3	315	0.00	29.967 
11:40	86.3	86.3	93.6	65	73.1	1	3	315	0.00	29.967 
11:45	86.5	86.5	93.3	63	72.4	1	4	292	0.00	29.967 
11:50	87.0	87.0	93.9	62	72.4	1	2	292	0.00	29.967 
11:55	87.2	87.2	94.8	63	73.0	1	2	0	0.00	29.967 
12:00	87.4	87.4	94.8	62	72.7	0	2	0	0.00	29.968 
12:05	88.0	88.0	95.6	61	72.8	0	2	0	0.00	29.968 
12:10	88.4	88.4	96.5	61	73.2	1	3	292	0.00	29.968 
12:15	88.6	88.6	96.5	60	72.9	1	3	315	0.00	29.966 
12:20	88.8	88.8	96.4	59	72.6	0	2	315	0.00	29.966 
12:25	89.3	89.3	98.0	60	73.6	0	2	315	0.00	29.966 
12:30	89.9	89.9	98.9	59	73.6	1	3	270	0.00	29.962 
12:35	89.7	89.7	97.9	58	72.9	1	3	270	0.00	29.962 
12:40	89.7	89.7	97.9	58	72.9	1	3	248	0.00	29.962 
12:45	89.9	89.9	98.9	59	73.6	1	2	292	0.00	29.959 
12:50	90.3	90.3	99.3	58	73.5	1	3	68	0.00	29.959 
12:55	90.5	90.5	99.2	57	73.1	0	4	68	0.00	29.959 
13:00	90.5	90.5	99.2	57	73.1	1	4	270	0.00	29.956 
13:05	91.0	91.0	100.3	57	73.6	0	3	292	0.00	29.956 
13:10	91.2	91.2	100.2	56	73.3	0	3	292	0.00	29.956 
13:15	91.4	91.4	100.1	55	72.9	0	2	292	0.00	29.958 
13:20	91.4	91.4	99.5	54	72.4	1	3	248	0.00	29.958 
13:25	91.6	91.6	100.5	55	73.1	1	4	68	0.00	29.958 
13:30	91.8	91.8	101.0	55	73.3	0	2	45	0.00	29.949 
13:35	91.8	91.8	99.8	53	72.2	0	2	0	0.00	29.949 
13:40	92.1	92.1	101.1	54	73.0	1	3	315	0.00	29.949 
13:45	91.8	91.8	99.8	53	72.2	1	4	292	0.00	29.947 
13:50	92.1	92.1	100.5	53	72.5	0	4	292	0.00	29.947 
13:55	92.5	92.5	101.4	53	72.8	1	3	270	0.00	29.947 
14:00	92.5	92.5	100.8	52	72.3	1	3	292	0.00	29.943 
14:05	92.5	92.5	100.2	51	71.7	1	5	270	0.00	29.943 
14:10	92.3	92.3	100.9	53	72.6	1	4	270	0.00	29.943 
14:15	92.1	92.1	99.9	52	71.9	1	4	270	0.00	29.947 
14:20	92.1	92.1	99.9	52	71.9	1	4	270	0.00	29.947 
14:25	92.1	92.1	99.3	51	71.3	2	5	270	0.00	29.947 
14:30	91.8	91.8	99.8	53	72.2	2	5	270	0.00	29.945 
14:35	91.8	91.8	100.4	54	72.7	1	4	292	0.00	29.945 
14:40	91.8	91.8	99.8	53	72.2	1	3	315	0.00	29.945 
14:45	92.5	92.5	101.4	53	72.8	0	2	315	0.00	29.939 
14:50	92.7	92.7	100.6	51	71.9	2	5	270	0.00	29.939 
14:55	92.3	92.3	99.7	51	71.5	1	5	270	0.00	29.939 
15:00	92.5	92.5	100.8	52	72.3	1	4	270	0.00	29.931 
15:05	92.3	92.3	100.3	52	72.1	2	6	270	0.00	29.931 
15:10	92.3	92.3	99.7	51	71.5	1	4	270	0.00	29.931 
15:15	92.1	92.1	100.5	53	72.5	2	5	270	0.00	29.924 
15:20	91.8	91.8	99.2	52	71.6	1	3	292	0.00	29.924 
15:25	92.1	92.1	100.5	53	72.5	1	4	315	0.00	29.924 
15:30	92.5	92.5	100.2	51	71.7	2	5	292	0.00	29.919 
15:35	92.1	92.1	101.1	54	73.0	1	3	292	0.00	29.919 
15:40	92.5	92.5	101.4	53	72.8	1	3	292	0.00	29.919 
15:45	92.7	92.7	100.6	51	71.9	2	4	292	0.00	29.914 
15:50	92.7	92.7	100.6	51	71.9	1	4	292	0.00	29.914 
15:55	92.7	92.7	100.6	51	71.9	1	3	315	0.00	29.914 
16:00	92.5	92.5	100.8	52	72.3	1	4	315	0.00	29.903 
16:05	92.1	92.1	99.9	52	71.9	1	7	315	0.00	29.903 
16:10	92.1	92.1	99.9	52	71.9	1	4	270	0.00	29.903 
16:15	92.1	92.1	99.9	52	71.9	1	4	270	0.00	29.896 
16:20	92.1	92.1	98.8	50	70.7	1	3	292	0.00	29.896 
16:25	92.3	92.3	99.2	50	70.9	2	6	270	0.00	29.896 
16:30	92.3	92.3	99.7	51	71.5	1	4	270	0.00	29.891 
16:35	92.3	92.3	99.7	51	71.5	1	5	270	0.00	29.891 
16:40	91.8	91.8	99.2	52	71.6	1	4	292	0.00	29.891 
16:45	91.4	91.4	98.4	52	71.3	1	6	270	0.00	29.884 
16:50	90.7	90.7	97.4	53	71.2	1	4	248	0.00	29.884 
16:55	90.7	90.7	97.4	53	71.2	1	6	270	0.00	29.884 
17:00	90.5	90.5	97.0	53	71.0	1	3	270	0.00	29.880 
17:05	90.5	90.5	97.5	54	71.5	1	3	270	0.00	29.880 
17:10	90.1	90.1	96.7	54	71.2	1	3	270	0.00	29.880 
17:15	90.3	90.3	96.6	53	70.8	1	5	270	0.00	29.882 
17:20	90.5	90.5	96.5	52	70.4	2	7	292	0.00	29.882 
17:25	91.0	91.0	97.5	52	70.9	2	6	270	0.00	29.882 
17:30	90.7	90.7	96.9	52	70.6	1	5	248	0.00	29.883 
17:35	90.5	90.5	96.5	52	70.4	1	4	270	0.00	29.883 
17:40	90.5	90.5	97.0	53	71.0	1	5	270	0.00	29.883 
17:45	91.0	91.0	98.1	53	71.4	1	3	315	0.00	29.872 
17:50	91.4	91.4	97.8	51	70.7	1	5	270	0.00	29.872 
17:55	91.2	91.2	97.4	51	70.5	2	5	292	0.00	29.872 
18:00	90.7	90.7	96.4	51	70.0	1	5	270	0.00	29.867 
18:05	90.3	90.3	96.1	52	70.2	2	7	315	0.00	29.867 
18:10	90.1	90.1	96.2	53	70.6	1	3	292	0.00	29.867 
18:15	90.1	90.1	96.2	53	70.6	1	6	270	0.00	29.865 
18:20	90.1	90.1	96.7	54	71.2	1	3	292	0.00	29.865 
18:25	89.9	89.9	96.3	54	71.0	1	5	270	0.00	29.865 
18:30	89.7	89.7	96.4	55	71.3	1	3	270	0.00	29.856 
18:35	89.3	89.3	95.5	55	71.0	1	4	270	0.00	29.856 
18:40	88.8	88.8	95.4	57	71.6	1	3	315	0.00	29.856 
18:45	88.6	88.6	95.0	57	71.4	1	4	292	0.00	29.849 
18:50	88.2	88.2	94.2	57	71.0	1	3	315	0.00	29.849 
18:55	88.0	88.0	94.3	58	71.3	0	1	315	0.00	29.849 
19:00	87.8	87.8	94.3	59	71.7	0	3	315	0.00	29.843 
19:05	87.6	87.6	94.3	60	72.0	0	3	315	0.00	29.843 
19:10	87.4	87.4	93.9	60	71.8	0	2	315	0.00	29.843 
19:15	87.2	87.2	93.5	60	71.6	0	3	45	0.00	29.850 
19:20	87.0	87.0	93.5	61	71.9	0	2	22	0.00	29.850 
19:25	86.7	86.7	92.9	61	71.6	0	3	315	0.00	29.850 
19:30	86.5	86.5	92.1	60	70.9	0	3	315	0.00	29.858 
19:35	86.3	86.3	92.1	61	71.2	0	1	315	0.00	29.858 
19:40	86.3	86.3	91.7	60	70.7	0	1	315	0.00	29.858 
19:45	86.1	86.1	91.7	61	71.0	0	2	315	0.00	29.857 
19:50	86.1	86.1	91.7	61	71.0	0	4	292	0.00	29.857 
19:55	85.9	85.9	91.3	61	70.9	0	2	292	0.00	29.857 
20:00	85.7	85.7	90.9	61	70.7	0	1	292	0.00	29.851 
20:05	85.5	85.5	90.5	61	70.5	0	1	292	0.00	29.851 
20:10	85.5	85.5	90.5	61	70.5	0	3	292	0.00	29.851 
20:15	85.3	85.3	90.1	61	70.3	0	3	292	0.00	29.872 
20:20	85.3	85.3	90.5	62	70.8	0	1	292	0.00	29.872 
20:25	85.1	85.1	90.1	62	70.6	0	2	292	0.00	29.872 
20:30	84.9	84.9	89.7	62	70.4	0	1	292	0.00	29.872 
20:35	84.7	84.7	89.3	62	70.2	0	2	292	0.00	29.872 
20:40	84.7	84.7	89.6	63	70.7	1	4	292	0.00	29.872 
20:45	83.0	83.0	87.1	65	70.0	1	3	292	0.04	29.891 
20:50	80.1	80.1	83.0	69	69.0	0	1	292	0.00	29.891 
20:55	78.1	78.1	80.2	72	68.3	0	1	292	0.00	29.891 
21:00	76.7	76.7	78.2	77	68.9	0	0	---	0.00	29.900 
21:05	75.8	75.8	76.8	79	68.8	1	10	292	0.00	29.900 
21:10	74.7	74.7	74.7	77	67.0	3	9	338	0.00	29.900 
21:15	74.0	74.0	74.0	79	67.1	1	4	315	0.00	29.911 
21:20	73.7	73.7	73.7	81	67.5	1	5	315	0.00	29.911 
21:25	73.3	73.3	73.3	82	67.5	3	7	338	0.00	29.911 
21:30	73.0	73.0	73.0	83	67.5	4	9	315	0.00	29.928 
21:35	72.5	72.5	72.5	84	67.4	4	12	292	0.01	29.928 
21:40	71.6	71.6	71.6	88	67.8	4	12	270	0.06	29.928 
21:45	71.1	71.1	71.1	89	67.7	3	6	270	0.04	29.971 
21:50	70.6	70.6	70.6	90	67.5	4	9	292	0.04	29.971 
21:55	69.9	69.9	69.9	91	67.1	4	9	315	0.08	29.971 
22:00	69.6	69.6	69.6	92	67.2	3	6	270	0.04	29.959 
22:05	69.4	69.4	69.4	92	67.0	3	7	270	0.01	29.959 
22:10	69.3	69.3	69.3	92	66.9	3	6	270	0.01	29.959 
22:15	69.3	69.3	69.3	93	67.2	1	4	270	0.00	29.969 
22:20	69.1	69.1	69.1	93	67.0	0	3	270	0.00	29.969 
22:25	69.1	69.1	69.1	93	67.0	1	3	270	0.01	29.969 
22:30	69.1	69.1	69.1	93	67.0	0	2	270	0.01	29.976 
22:35	69.1	69.1	69.1	93	67.0	0	3	270	0.01	29.976 
22:40	68.9	68.9	68.9	94	67.1	1	3	270	0.01	29.976 
22:45	68.9	68.9	68.9	94	67.1	1	3	270	0.02	29.983 
22:50	68.9	68.9	68.9	94	67.1	0	2	270	0.01	29.983 
22:55	68.9	68.9	68.9	94	67.1	0	4	270	0.02	29.983 
23:00	69.1	69.1	69.1	94	67.3	0	3	270	0.01	29.977 
23:05	69.1	69.1	69.1	94	67.3	0	1	270	0.01	29.977 
23:10	69.1	69.1	69.1	94	67.3	0	2	270	0.01	29.977 
23:15	68.9	68.9	68.9	94	67.1	0	1	270	0.00	29.958 
23:20	68.9	68.9	68.9	94	67.1	0	1	270	0.01	29.958 
23:25	68.9	68.9	68.9	95	67.4	0	0	---	0.00	29.958 
23:30	68.9	68.9	68.9	95	67.4	0	0	---	0.01	29.929 
23:35	68.9	68.9	68.9	95	67.4	0	0	---	0.00	29.929 
23:40	68.9	68.9	68.9	95	67.4	0	0	---	0.00	29.929 
23:45	68.9	68.9	68.9	95	67.4	0	0	---	0.00	29.911 
23:50	68.9	68.9	68.9	95	67.4	0	0	---	0.00	29.911 
23:55	68.9	68.9	68.9	95	67.4	0	0	---	0.00	29.911 

CoCoRaHS
IN-AL-39
A2 Web Hosting
Creative Commons License
GoDaddy
search engine by freefind advanced

loaded 2018-11-20 08:15:05 • last modified 2010-11-18 10:43:29
Privacy PolicyDisclaimer
• wx.awcolley.com is powered by PmWiki v.2002016 •
• all content (unless otherwise noted) © 2018 A W Colley